createdAt,value
2023-03-07T00:01:59.165Z,17.70
2023-03-07T00:04:26.298Z,15.68
2023-03-07T00:06:55.708Z,14.90
2023-03-07T00:09:22.810Z,15.27
2023-03-07T00:11:50.484Z,15.85
2023-03-07T00:14:17.798Z,17.17
2023-03-07T00:16:44.968Z,17.02
2023-03-07T00:19:11.968Z,16.45
2023-03-07T00:21:38.890Z,15.30
2023-03-07T00:24:06.304Z,16.88
2023-03-07T00:26:34.393Z,16.10
2023-03-07T00:29:01.384Z,15.32
2023-03-07T00:31:28.370Z,17.38
2023-03-07T00:33:55.410Z,15.13
2023-03-07T00:36:23.205Z,15.15
2023-03-07T00:38:51.812Z,15.50
2023-03-07T00:41:21.700Z,15.68
2023-03-07T00:43:48.707Z,14.68
2023-03-07T00:46:17.321Z,16.55
2023-03-07T00:48:44.769Z,15.23
2023-03-07T00:51:15.229Z,15.43
2023-03-07T00:53:42.263Z,15.30
2023-03-07T00:56:18.159Z,14.23
2023-03-07T00:58:45.870Z,14.73
2023-03-07T01:01:15.504Z,15.70
2023-03-07T01:03:42.932Z,15.52
2023-03-07T01:06:13.784Z,14.73
2023-03-07T01:08:41.185Z,15.60
2023-03-07T01:11:29.285Z,14.60
2023-03-07T01:13:58.600Z,15.18
2023-03-07T01:16:32.012Z,13.90
2023-03-07T01:19:05.200Z,14.32
2023-03-07T01:21:35.364Z,15.18
2023-03-07T01:24:05.253Z,14.65
2023-03-07T01:26:33.497Z,14.07
2023-03-07T01:29:03.771Z,14.30
2023-03-07T01:31:34.434Z,14.10
2023-03-07T01:34:03.049Z,13.40
2023-03-07T01:36:34.342Z,14.85
2023-03-07T01:39:07.480Z,14.18
2023-03-07T01:41:38.038Z,13.88
2023-03-07T01:44:17.112Z,13.73
2023-03-07T01:46:46.468Z,12.88
2023-03-07T01:49:31.744Z,14.80
2023-03-07T01:52:12.365Z,15.27
2023-03-07T01:54:49.113Z,14.27
2023-03-07T01:57:21.581Z,14.32
2023-03-07T01:59:54.082Z,14.05
2023-03-07T02:02:22.910Z,13.88
2023-03-07T02:04:58.126Z,13.95
2023-03-07T02:07:29.333Z,13.85
2023-03-07T02:09:58.013Z,13.88
2023-03-07T02:12:25.385Z,13.82
2023-03-07T02:14:52.955Z,12.60
2023-03-07T02:17:20.543Z,12.77
2023-03-07T02:20:11.948Z,13.02
2023-03-07T02:22:40.711Z,12.50
2023-03-07T02:25:22.277Z,12.80
2023-03-07T02:27:53.097Z,12.60
2023-03-07T02:30:21.269Z,13.43
2023-03-07T02:32:50.453Z,13.30
2023-03-07T02:35:20.830Z,13.13
2023-03-07T02:37:55.115Z,11.85
2023-03-07T02:40:25.420Z,13.35
2023-03-07T02:42:55.651Z,12.40
2023-03-07T02:45:23.176Z,11.85
2023-03-07T02:47:50.256Z,12.77
2023-03-07T02:50:18.929Z,12.85
2023-03-07T02:52:50.033Z,13.35
2023-03-07T02:55:17.146Z,12.88
2023-03-07T02:57:53.822Z,13.57
2023-03-07T03:00:21.849Z,12.40
2023-03-07T03:02:49.068Z,12.10
2023-03-07T03:05:16.147Z,11.82
2023-03-07T03:07:43.130Z,12.00
2023-03-07T03:10:10.640Z,12.95
2023-03-07T03:12:37.841Z,13.15
2023-03-07T03:15:06.719Z,12.73
2023-03-07T03:17:33.734Z,14.20
2023-03-07T03:20:00.724Z,12.85
2023-03-07T03:22:27.623Z,11.98
2023-03-07T03:24:55.222Z,11.75
2023-03-07T03:27:22.234Z,11.68
2023-03-07T03:29:54.270Z,11.80
2023-03-07T03:32:21.978Z,11.75
2023-03-07T03:34:48.962Z,10.93
2023-03-07T03:37:16.442Z,11.38
2023-03-07T03:39:43.442Z,12.20
2023-03-07T03:42:13.357Z,11.75
2023-03-07T03:44:40.462Z,11.68
2023-03-07T03:47:07.436Z,12.00
2023-03-07T03:49:34.593Z,12.32
2023-03-07T03:52:01.875Z,11.40
2023-03-07T03:54:28.985Z,12.00
2023-03-07T03:56:57.053Z,13.23
2023-03-07T03:59:24.365Z,13.07
2023-03-07T04:01:51.789Z,13.63
2023-03-07T04:04:19.557Z,12.05
2023-03-07T04:06:46.665Z,11.75
2023-03-07T04:09:13.847Z,12.57
2023-03-07T04:11:43.669Z,12.00
2023-03-07T04:14:11.404Z,14.05
2023-03-07T04:16:38.474Z,12.20
2023-03-07T04:19:05.777Z,12.52
2023-03-07T04:21:32.740Z,11.07
2023-03-07T04:24:00.831Z,11.30
2023-03-07T04:26:30.581Z,11.95
2023-03-07T04:28:57.584Z,11.95
2023-03-07T04:31:33.764Z,11.82
2023-03-07T04:34:03.243Z,11.88
2023-03-07T04:36:31.057Z,11.50
2023-03-07T04:38:58.084Z,12.45
2023-03-07T04:41:26.686Z,12.40
2023-03-07T04:44:17.549Z,12.50
2023-03-07T04:46:44.549Z,11.20
2023-03-07T04:49:11.718Z,11.85
2023-03-07T04:51:43.037Z,12.57
2023-03-07T04:54:11.745Z,12.35
2023-03-07T04:56:39.036Z,11.75
2023-03-07T04:59:06.667Z,12.45
2023-03-07T05:01:33.821Z,12.45
2023-03-07T05:04:01.378Z,12.75
2023-03-07T05:06:28.505Z,13.55
2023-03-07T05:08:55.554Z,12.93
2023-03-07T05:11:22.997Z,13.60
2023-03-07T05:13:51.808Z,12.27
2023-03-07T05:16:21.500Z,12.70
2023-03-07T05:18:49.041Z,14.00
2023-03-07T05:21:16.560Z,13.85
2023-03-07T05:23:43.598Z,13.07
2023-03-07T05:26:12.232Z,12.70
2023-03-07T05:28:39.317Z,13.30
2023-03-07T05:31:06.269Z,12.98
2023-03-07T05:33:33.724Z,13.98
2023-03-07T05:36:01.731Z,12.80
2023-03-07T05:38:29.967Z,12.45
2023-03-07T05:40:57.075Z,12.68
2023-03-07T05:43:24.752Z,12.35
2023-03-07T05:45:52.333Z,13.80
2023-03-07T05:48:19.503Z,13.60
2023-03-07T05:50:46.583Z,13.43
2023-03-07T05:53:13.990Z,12.07
2023-03-07T05:55:41.099Z,11.80
2023-03-07T05:58:08.162Z,11.15
2023-03-07T06:00:35.235Z,12.20
2023-03-07T06:03:04.031Z,11.85
2023-03-07T06:05:32.005Z,12.50
2023-03-07T06:07:59.112Z,12.57
2023-03-07T06:10:26.174Z,11.70
2023-03-07T06:12:54.194Z,11.77
2023-03-07T06:15:24.272Z,12.35
2023-03-07T06:17:54.700Z,12.65
2023-03-07T06:20:21.905Z,11.95
2023-03-07T06:22:49.799Z,11.75
2023-03-07T06:25:17.257Z,12.02
2023-03-07T06:27:44.416Z,12.95
2023-03-07T06:30:12.395Z,12.13
2023-03-07T06:32:40.234Z,12.07
2023-03-07T06:35:08.708Z,12.48
2023-03-07T06:37:37.068Z,12.75
2023-03-07T06:40:06.366Z,12.32
2023-03-07T06:42:35.939Z,13.48
2023-03-07T06:45:04.991Z,12.60
2023-03-07T06:47:32.020Z,12.70
2023-03-07T06:49:59.685Z,11.93
2023-03-07T06:52:26.850Z,12.57
2023-03-07T06:54:53.785Z,12.00
2023-03-07T06:57:21.065Z,12.45
2023-03-07T06:59:48.301Z,12.23
2023-03-07T07:02:15.820Z,12.40
2023-03-07T07:04:43.056Z,13.20
2023-03-07T07:07:10.248Z,13.68
2023-03-07T07:09:37.275Z,12.50
2023-03-07T07:12:05.993Z,12.68
2023-03-07T07:14:34.762Z,13.77
2023-03-07T07:17:02.144Z,13.63
2023-03-07T07:19:29.408Z,13.45
2023-03-07T07:21:58.253Z,12.80
2023-03-07T07:24:25.309Z,13.85
2023-03-07T07:26:53.879Z,15.68
2023-03-07T07:29:21.095Z,15.15
2023-03-07T07:31:49.909Z,15.40
2023-03-07T07:34:18.993Z,14.23
2023-03-07T07:36:47.072Z,14.40
2023-03-07T07:39:15.353Z,14.85
2023-03-07T07:41:45.364Z,15.43
2023-03-07T07:44:13.415Z,15.55
2023-03-07T07:47:01.728Z,14.75
2023-03-07T07:49:28.840Z,14.25
2023-03-07T07:51:55.968Z,15.23
2023-03-07T07:54:23.152Z,15.93
2023-03-07T07:56:50.511Z,15.93
2023-03-07T07:59:18.395Z,15.48
2023-03-07T08:01:45.447Z,15.85
2023-03-07T08:04:12.746Z,15.43
2023-03-07T08:06:39.828Z,51.42
2023-03-07T08:09:07.052Z,30.60
2023-03-07T08:11:34.871Z,19.67
2023-03-07T08:14:03.210Z,17.15
2023-03-07T08:16:30.188Z,15.48
2023-03-07T08:18:57.670Z,14.27
2023-03-07T08:21:26.135Z,14.27
2023-03-07T08:23:56.342Z,13.88
2023-03-07T08:26:23.909Z,14.27
2023-03-07T08:28:50.883Z,13.35
2023-03-07T08:31:23.541Z,13.90
2023-03-07T08:33:51.400Z,14.68
2023-03-07T08:36:18.886Z,13.48
2023-03-07T08:38:51.691Z,10.98
2023-03-07T08:41:21.211Z,11.35
2023-03-07T08:43:48.718Z,12.27
2023-03-07T08:46:16.019Z,10.70
2023-03-07T08:48:43.133Z,11.45
2023-03-07T08:51:15.707Z,11.93
2023-03-07T08:53:43.612Z,10.55
2023-03-07T08:56:13.546Z,9.98
2023-03-07T08:58:41.334Z,11.27
2023-03-07T09:01:08.943Z,11.38
2023-03-07T09:03:36.739Z,13.13
2023-03-07T09:06:05.304Z,13.38
2023-03-07T09:08:33.033Z,12.65
2023-03-07T09:11:03.261Z,13.10
2023-03-07T09:13:30.287Z,13.25
2023-03-07T09:15:57.317Z,12.73
2023-03-07T09:18:24.312Z,12.32
2023-03-07T09:20:51.256Z,13.35
2023-03-07T09:23:18.213Z,12.80
2023-03-07T09:25:45.258Z,12.90
2023-03-07T09:28:12.185Z,11.88
2023-03-07T09:30:39.166Z,11.63
2023-03-07T09:33:06.081Z,12.52
2023-03-07T09:35:33.230Z,11.90
2023-03-07T09:38:00.562Z,11.88
2023-03-07T09:40:28.239Z,12.68
2023-03-07T09:43:07.317Z,12.38
2023-03-07T09:45:39.563Z,10.85
2023-03-07T09:48:42.317Z,12.38
2023-03-07T09:51:19.984Z,11.48
2023-03-07T09:54:01.549Z,11.30
2023-03-07T09:56:54.459Z,10.75
2023-03-07T09:59:39.760Z,10.82
2023-03-07T10:02:26.654Z,10.43
2023-03-07T10:05:08.586Z,10.82
2023-03-07T10:07:36.738Z,9.80
2023-03-07T10:10:14.250Z,9.57
2023-03-07T10:12:53.201Z,9.50
2023-03-07T10:15:35.819Z,9.80
2023-03-07T10:18:31.605Z,10.75
2023-03-07T10:21:22.307Z,10.87
2023-03-07T10:24:17.233Z,9.70
2023-03-07T10:27:05.581Z,8.68
2023-03-07T10:30:06.351Z,9.20
2023-03-07T10:32:51.848Z,8.75
2023-03-07T10:35:24.362Z,8.68
2023-03-07T10:38:09.641Z,8.15
2023-03-07T10:40:52.143Z,9.32
2023-03-07T10:43:28.730Z,8.73
2023-03-07T10:46:27.421Z,7.40
2023-03-07T10:48:58.658Z,8.85
2023-03-07T10:52:01.184Z,8.50
2023-03-07T10:54:38.848Z,8.45
2023-03-07T10:57:09.473Z,7.72
2023-03-07T10:59:38.736Z,8.00
2023-03-07T11:02:31.540Z,8.52
2023-03-07T11:04:59.406Z,7.63
2023-03-07T11:07:28.613Z,8.45
2023-03-07T11:09:57.402Z,8.15
2023-03-07T11:12:27.319Z,9.13
2023-03-07T11:14:58.047Z,9.23
2023-03-07T11:17:40.010Z,8.65
2023-03-07T11:20:49.347Z,7.80
2023-03-07T11:23:25.938Z,7.63
2023-03-07T11:25:55.013Z,8.82
2023-03-07T11:28:33.639Z,7.68
2023-03-07T11:31:41.696Z,9.48
2023-03-07T11:34:27.300Z,8.02
2023-03-07T11:37:12.169Z,8.10
2023-03-07T11:39:55.247Z,8.05
2023-03-07T11:42:28.238Z,8.38
2023-03-07T11:45:27.046Z,8.27
2023-03-07T11:48:19.673Z,6.93
2023-03-07T11:50:55.308Z,8.23
2023-03-07T11:53:42.988Z,8.18
2023-03-07T11:56:19.055Z,7.50
2023-03-07T11:59:21.218Z,7.72
2023-03-07T12:01:58.358Z,7.10
2023-03-07T12:04:56.894Z,7.13
2023-03-07T12:07:32.806Z,6.53
2023-03-07T12:10:30.433Z,6.85
2023-03-07T12:13:36.659Z,6.82
2023-03-07T12:16:19.804Z,6.77
2023-03-07T12:19:15.665Z,6.88
2023-03-07T12:22:19.975Z,6.87
2023-03-07T12:24:55.607Z,7.80
2023-03-07T12:30:21.792Z,7.47
2023-03-07T12:32:50.703Z,6.50
2023-03-07T12:35:45.215Z,6.88
2023-03-07T12:38:27.555Z,7.00
2023-03-07T12:41:01.645Z,7.13
2023-03-07T12:43:39.293Z,5.95
2023-03-07T12:46:38.798Z,9.77
2023-03-07T12:49:33.864Z,7.50
2023-03-07T12:52:10.828Z,7.20
2023-03-07T12:54:42.240Z,8.00
2023-03-07T12:57:16.279Z,7.10
2023-03-07T12:59:44.317Z,7.07
2023-03-07T13:02:13.786Z,9.45
2023-03-07T13:04:44.960Z,6.72
2023-03-07T13:07:24.761Z,8.70
2023-03-07T13:09:54.602Z,6.68
2023-03-07T13:12:31.877Z,6.60
2023-03-07T13:15:16.640Z,9.32
2023-03-07T13:17:43.541Z,8.43
2023-03-07T13:20:19.334Z,7.85
2023-03-07T13:22:46.287Z,6.75
2023-03-07T13:25:22.667Z,7.53
2023-03-07T13:27:58.333Z,6.65
2023-03-07T13:32:55.961Z,7.38
2023-03-07T13:35:29.442Z,7.20
2023-03-07T13:37:59.775Z,7.72
2023-03-07T13:40:35.687Z,10.43
2023-03-07T13:43:24.122Z,7.82
2023-03-07T13:45:56.412Z,7.20
2023-03-07T13:48:32.537Z,8.20
2023-03-07T13:51:00.124Z,11.63
2023-03-07T13:53:50.616Z,11.57
2023-03-07T13:56:25.011Z,9.45
2023-03-07T13:58:59.501Z,12.32
2023-03-07T14:01:44.230Z,9.00
2023-03-07T14:04:13.859Z,8.05
2023-03-07T14:06:58.491Z,11.55
2023-03-07T14:10:21.416Z,8.68
2023-03-07T14:13:05.564Z,8.82
2023-03-07T14:15:51.219Z,8.43
2023-03-07T14:18:43.249Z,11.25
2023-03-07T14:21:37.128Z,9.57
2023-03-07T14:24:19.093Z,8.00
2023-03-07T14:26:50.836Z,11.80
2023-03-07T14:29:22.244Z,11.43
2023-03-07T14:31:53.057Z,9.13
2023-03-07T14:34:29.013Z,11.98
2023-03-07T14:37:15.587Z,11.50
2023-03-07T14:40:01.730Z,10.10
2023-03-07T14:42:40.931Z,11.55
2023-03-07T14:45:16.509Z,12.38
2023-03-07T14:50:25.131Z,10.45
2023-03-07T14:52:59.105Z,12.95
2023-03-07T14:55:33.966Z,11.60
2023-03-07T14:58:01.093Z,12.20
2023-03-07T15:00:29.361Z,11.90
2023-03-07T15:03:07.962Z,9.63
2023-03-07T15:05:38.409Z,11.90
2023-03-07T15:08:31.467Z,11.90
2023-03-07T15:11:13.388Z,12.25
2023-03-07T15:13:55.147Z,11.68
2023-03-07T15:16:44.298Z,12.07
2023-03-07T15:19:15.587Z,9.50
